sensor_id;sensor_type;location;lat;lon;timestamp;pressure;altitude;pressure_sealevel;temperature;humidity
50702;BME280;36670;50.094;8.496;2022-09-09T00:00:23;99831.28;;;18.16;71.30
50702;BME280;36670;50.094;8.496;2022-09-09T00:03:07;99830.50;;;18.01;71.36
50702;BME280;36670;50.094;8.496;2022-09-09T00:05:44;99832.59;;;17.96;71.62
50702;BME280;36670;50.094;8.496;2022-09-09T00:08:25;99828.94;;;17.95;71.17
50702;BME280;36670;50.094;8.496;2022-09-09T00:11:00;99830.28;;;17.98;70.82
50702;BME280;36670;50.094;8.496;2022-09-09T00:13:46;99832.59;;;17.96;71.28
50702;BME280;36670;50.094;8.496;2022-09-09T00:16:19;99822.44;;;17.86;71.24
50702;BME280;36670;50.094;8.496;2022-09-09T00:21:16;99826.78;;;17.78;71.28
50702;BME280;36670;50.094;8.496;2022-09-09T00:23:54;99830.53;;;17.73;70.83
50702;BME280;36670;50.094;8.496;2022-09-09T00:31:31;99818.75;;;17.63;71.58
50702;BME280;36670;50.094;8.496;2022-09-09T00:34:21;99825.97;;;17.64;71.81
50702;BME280;36670;50.094;8.496;2022-09-09T00:36:49;99816.75;;;17.63;71.85
50702;BME280;36670;50.094;8.496;2022-09-09T00:39:42;99820.81;;;17.57;72.25
50702;BME280;36670;50.094;8.496;2022-09-09T00:42:18;99815.66;;;17.50;71.85
50702;BME280;36670;50.094;8.496;2022-09-09T00:44:53;99819.06;;;17.47;71.61
50702;BME280;36670;50.094;8.496;2022-09-09T00:47:43;99821.03;;;17.47;71.73
50702;BME280;36670;50.094;8.496;2022-09-09T00:56:09;99820.59;;;17.39;72.07
50702;BME280;36670;50.094;8.496;2022-09-09T00:58:36;99835.72;;;17.38;72.37
50702;BME280;36670;50.094;8.496;2022-09-09T01:01:05;99830.13;;;17.38;71.54
50702;BME280;36670;50.094;8.496;2022-09-09T01:03:37;99833.03;;;17.33;71.70
50702;BME280;36670;50.094;8.496;2022-09-09T01:09:04;99827.13;;;17.21;72.41
50702;BME280;36670;50.094;8.496;2022-09-09T01:17:26;99825.41;;;16.92;73.67
50702;BME280;36670;50.094;8.496;2022-09-09T01:19:59;99824.28;;;16.93;73.75
50702;BME280;36670;50.094;8.496;2022-09-09T01:22:36;99826.63;;;16.86;73.94
50702;BME280;36670;50.094;8.496;2022-09-09T01:25:18;99829.38;;;16.91;73.00
50702;BME280;36670;50.094;8.496;2022-09-09T01:27:46;99831.63;;;16.89;73.27
50702;BME280;36670;50.094;8.496;2022-09-09T01:30:16;99828.88;;;16.84;73.42
50702;BME280;36670;50.094;8.496;2022-09-09T01:32:48;99833.94;;;16.82;73.98
50702;BME280;36670;50.094;8.496;2022-09-09T01:37:48;99820.44;;;16.56;74.85
50702;BME280;36670;50.094;8.496;2022-09-09T01:40:14;99827.69;;;16.57;74.99
50702;BME280;36670;50.094;8.496;2022-09-09T01:42:40;99816.72;;;16.47;75.36
50702;BME280;36670;50.094;8.496;2022-09-09T01:45:05;99819.31;;;16.57;75.06
50702;BME280;36670;50.094;8.496;2022-09-09T01:47:31;99825.44;;;16.59;74.47
50702;BME280;36670;50.094;8.496;2022-09-09T01:49:57;99824.19;;;16.65;74.41
50702;BME280;36670;50.094;8.496;2022-09-09T01:52:23;99824.94;;;16.71;74.23
50702;BME280;36670;50.094;8.496;2022-09-09T01:54:48;99827.63;;;16.76;73.44
50702;BME280;36670;50.094;8.496;2022-09-09T01:57:22;99825.78;;;16.71;74.24
50702;BME280;36670;50.094;8.496;2022-09-09T02:02:33;99824.19;;;16.65;74.39
50702;BME280;36670;50.094;8.496;2022-09-09T02:05:37;99826.25;;;16.60;74.13
50702;BME280;36670;50.094;8.496;2022-09-09T02:08:15;99823.59;;;16.35;75.57
50702;BME280;36670;50.094;8.496;2022-09-09T02:11:06;99820.28;;;16.14;76.08
50702;BME280;36670;50.094;8.496;2022-09-09T02:13:36;99816.59;;;16.19;75.74
50702;BME280;36670;50.094;8.496;2022-09-09T02:18:44;99838.28;;;16.22;76.14
50702;BME280;36670;50.094;8.496;2022-09-09T02:21:12;99830.53;;;16.19;76.44
50702;BME280;36670;50.094;8.496;2022-09-09T02:23:41;99834.44;;;16.18;76.17
50702;BME280;36670;50.094;8.496;2022-09-09T02:26:09;99832.88;;;16.12;76.75
50702;BME280;36670;50.094;8.496;2022-09-09T02:28:36;99838.56;;;16.20;76.15
50702;BME280;36670;50.094;8.496;2022-09-09T02:31:03;99838.78;;;16.24;76.32
50702;BME280;36670;50.094;8.496;2022-09-09T02:33:34;99844.72;;;16.36;75.70
50702;BME280;36670;50.094;8.496;2022-09-09T02:36:03;99842.00;;;16.50;75.47
50702;BME280;36670;50.094;8.496;2022-09-09T02:38:35;99844.28;;;16.48;75.63
50702;BME280;36670;50.094;8.496;2022-09-09T02:41:02;99847.25;;;16.52;75.52
50702;BME280;36670;50.094;8.496;2022-09-09T02:43:33;99844.56;;;16.47;75.52
50702;BME280;36670;50.094;8.496;2022-09-09T02:46:27;99834.88;;;16.44;75.47
50702;BME280;36670;50.094;8.496;2022-09-09T02:49:08;99840.25;;;16.54;75.20
50702;BME280;36670;50.094;8.496;2022-09-09T02:51:57;99839.50;;;16.68;75.01
50702;BME280;36670;50.094;8.496;2022-09-09T02:54:31;99836.19;;;16.80;74.86
50702;BME280;36670;50.094;8.496;2022-09-09T02:57:03;99830.22;;;16.86;74.89
50702;BME280;36670;50.094;8.496;2022-09-09T02:59:31;99825.16;;;16.75;75.06
50702;BME280;36670;50.094;8.496;2022-09-09T03:01:56;99829.50;;;16.81;74.52
50702;BME280;36670;50.094;8.496;2022-09-09T03:04:22;99828.53;;;16.91;74.76
50702;BME280;36670;50.094;8.496;2022-09-09T03:06:49;99829.88;;;16.93;74.65
50702;BME280;36670;50.094;8.496;2022-09-09T03:09:14;99829.66;;;16.89;74.62
50702;BME280;36670;50.094;8.496;2022-09-09T03:11:40;99826.47;;;16.96;74.86
50702;BME280;36670;50.094;8.496;2022-09-09T03:14:05;99826.78;;;16.95;74.27
50702;BME280;36670;50.094;8.496;2022-09-09T03:16:31;99819.94;;;16.87;74.61
50702;BME280;36670;50.094;8.496;2022-09-09T03:18:58;99827.41;;;16.92;74.82
50702;BME280;36670;50.094;8.496;2022-09-09T03:21:23;99830.50;;;16.90;75.05
50702;BME280;36670;50.094;8.496;2022-09-09T03:23:49;99829.88;;;16.93;74.11
50702;BME280;36670;50.094;8.496;2022-09-09T03:26:15;99826.03;;;16.89;74.44
50702;BME280;36670;50.094;8.496;2022-09-09T03:28:41;99821.00;;;16.91;74.48
50702;BME280;36670;50.094;8.496;2022-09-09T03:31:07;99826.84;;;16.89;74.65
50702;BME280;36670;50.094;8.496;2022-09-09T03:33:35;99831.09;;;16.87;73.97
50702;BME280;36670;50.094;8.496;2022-09-09T03:36:01;99838.91;;;16.85;74.41
50702;BME280;36670;50.094;8.496;2022-09-09T03:38:26;99840.25;;;16.87;74.40
50702;BME280;36670;50.094;8.496;2022-09-09T03:40:55;99840.56;;;16.86;74.65
50702;BME280;36670;50.094;8.496;2022-09-09T03:43:22;99838.28;;;16.88;74.38
50702;BME280;36670;50.094;8.496;2022-09-09T03:45:48;99838.00;;;16.89;74.65
50702;BME280;36670;50.094;8.496;2022-09-09T03:48:14;99834.09;;;16.91;74.28
50702;BME280;36670;50.094;8.496;2022-09-09T03:50:47;99830.69;;;16.94;74.61
50702;BME280;36670;50.094;8.496;2022-09-09T03:53:14;99833.19;;;16.95;74.43
50702;BME280;36670;50.094;8.496;2022-09-09T03:55:44;99832.22;;;16.86;74.46
50702;BME280;36670;50.094;8.496;2022-09-09T03:58:11;99836.50;;;16.78;75.34
50702;BME280;36670;50.094;8.496;2022-09-09T04:00:36;99829.50;;;16.81;75.08
50702;BME280;36670;50.094;8.496;2022-09-09T04:03:02;99829.00;;;16.79;75.18
50702;BME280;36670;50.094;8.496;2022-09-09T04:05:27;99819.59;;;16.75;75.12
50702;BME280;36670;50.094;8.496;2022-09-09T04:07:52;99813.28;;;16.69;75.21
50702;BME280;36670;50.094;8.496;2022-09-09T04:10:18;99808.53;;;16.69;75.57
50702;BME280;36670;50.094;8.496;2022-09-09T04:12:43;99812.31;;;16.60;75.81
50702;BME280;36670;50.094;8.496;2022-09-09T04:15:09;99812.53;;;16.63;75.75
50702;BME280;36670;50.094;8.496;2022-09-09T04:17:35;99809.03;;;16.58;75.44
50702;BME280;36670;50.094;8.496;2022-09-09T04:20:01;99804.56;;;16.57;75.82
50702;BME280;36670;50.094;8.496;2022-09-09T04:22:27;99802.28;;;16.59;76.01
50702;BME280;36670;50.094;8.496;2022-09-09T04:24:52;99802.28;;;16.59;75.93
50702;BME280;36670;50.094;8.496;2022-09-09T04:27:17;99811.91;;;16.66;75.38
50702;BME280;36670;50.094;8.496;2022-09-09T04:29:43;99807.91;;;16.72;75.24
50702;BME280;36670;50.094;8.496;2022-09-09T04:32:08;99805.34;;;16.76;75.55
50702;BME280;36670;50.094;8.496;2022-09-09T04:34:33;99803.91;;;16.79;74.91
50702;BME280;36670;50.094;8.496;2022-09-09T04:36:59;99793.78;;;16.83;75.41
50702;BME280;36670;50.094;8.496;2022-09-09T04:39:25;99799.16;;;16.79;75.76
50702;BME280;36670;50.094;8.496;2022-09-09T04:41:51;99798.63;;;16.77;75.36
50702;BME280;36670;50.094;8.496;2022-09-09T04:44:16;99800.28;;;16.78;75.52
50702;BME280;36670;50.094;8.496;2022-09-09T04:46:41;99820.00;;;16.82;74.99
50702;BME280;36670;50.094;8.496;2022-09-09T04:49:07;99820.63;;;16.79;74.96
50702;BME280;36670;50.094;8.496;2022-09-09T04:51:32;99818.66;;;16.79;75.00
50702;BME280;36670;50.094;8.496;2022-09-09T04:53:58;99819.47;;;16.80;75.25
50702;BME280;36670;50.094;8.496;2022-09-09T04:56:23;99813.09;;;16.79;75.06
50702;BME280;36670;50.094;8.496;2022-09-09T04:58:51;99816.41;;;16.81;74.71
50702;BME280;36670;50.094;8.496;2022-09-09T05:01:21;99817.44;;;16.85;74.89
50702;BME280;36670;50.094;8.496;2022-09-09T05:03:47;99820.16;;;16.91;75.05
50702;BME280;36670;50.094;8.496;2022-09-09T05:06:18;99828.22;;;16.92;74.84
50702;BME280;36670;50.094;8.496;2022-09-09T05:08:44;99823.25;;;16.89;75.03
50702;BME280;36670;50.094;8.496;2022-09-09T05:11:24;99833.78;;;16.92;74.98
50702;BME280;36670;50.094;8.496;2022-09-09T05:13:50;99836.50;;;16.97;74.79
50702;BME280;36670;50.094;8.496;2022-09-09T05:16:16;99836.19;;;16.99;74.47
50702;BME280;36670;50.094;8.496;2022-09-09T05:18:42;99834.81;;;16.96;74.61
50702;BME280;36670;50.094;8.496;2022-09-09T05:21:09;99842.69;;;16.94;74.57
50702;BME280;36670;50.094;8.496;2022-09-09T05:23:34;99847.53;;;16.88;75.66
50702;BME280;36670;50.094;8.496;2022-09-09T05:26:01;99842.16;;;16.92;75.11
50702;BME280;36670;50.094;8.496;2022-09-09T05:28:27;99850.34;;;17.02;75.52
50702;BME280;36670;50.094;8.496;2022-09-09T05:31:00;99853.47;;;17.15;75.01
50702;BME280;36670;50.094;8.496;2022-09-09T05:33:26;99855.56;;;17.23;74.84
50702;BME280;36670;50.094;8.496;2022-09-09T05:36:04;99857.00;;;17.34;74.94
50702;BME280;36670;50.094;8.496;2022-09-09T05:38:31;99862.38;;;17.45;74.86
50702;BME280;36670;50.094;8.496;2022-09-09T05:40:57;99865.47;;;17.29;75.42
50702;BME280;36670;50.094;8.496;2022-09-09T05:43:23;99870.53;;;17.27;75.68
50702;BME280;36670;50.094;8.496;2022-09-09T05:45:59;99866.19;;;17.21;75.94
50702;BME280;36670;50.094;8.496;2022-09-09T05:48:30;99867.63;;;17.18;75.78
50702;BME280;36670;50.094;8.496;2022-09-09T05:50:58;99867.13;;;17.30;75.33
50702;BME280;36670;50.094;8.496;2022-09-09T05:53:23;99873.94;;;17.38;75.00
50702;BME280;36670;50.094;8.496;2022-09-09T05:55:48;99872.59;;;17.35;75.77
50702;BME280;36670;50.094;8.496;2022-09-09T05:58:14;99864.34;;;17.30;76.19
50702;BME280;36670;50.094;8.496;2022-09-09T06:00:42;99872.31;;;17.37;75.68
50702;BME280;36670;50.094;8.496;2022-09-09T06:03:10;99877.91;;;17.51;76.08
50702;BME280;36670;50.094;8.496;2022-09-09T06:05:36;99877.06;;;17.50;75.06
50702;BME280;36670;50.094;8.496;2022-09-09T06:08:01;99878.09;;;17.54;75.53
50702;BME280;36670;50.094;8.496;2022-09-09T06:10:26;99877.88;;;17.79;75.07
50702;BME280;36670;50.094;8.496;2022-09-09T06:12:52;99884.00;;;18.68;74.05
50702;BME280;36670;50.094;8.496;2022-09-09T06:15:18;99879.44;;;20.24;70.63
50702;BME280;36670;50.094;8.496;2022-09-09T06:17:43;99877.72;;;21.75;65.96
50702;BME280;36670;50.094;8.496;2022-09-09T06:20:10;99869.56;;;22.76;63.04
50702;BME280;36670;50.094;8.496;2022-09-09T06:22:35;99875.28;;;22.46;62.01
50702;BME280;36670;50.094;8.496;2022-09-09T06:25:01;99878.13;;;21.56;63.22
50702;BME280;36670;50.094;8.496;2022-09-09T06:27:27;99880.94;;;20.91;64.77
50702;BME280;36670;50.094;8.496;2022-09-09T06:29:52;99883.09;;;20.51;65.12
50702;BME280;36670;50.094;8.496;2022-09-09T06:32:18;99878.41;;;20.02;66.22
50702;BME280;36670;50.094;8.496;2022-09-09T06:34:43;99883.47;;;19.42;67.33
50702;BME280;36670;50.094;8.496;2022-09-09T06:37:08;99885.53;;;18.97;68.72
50702;BME280;36670;50.094;8.496;2022-09-09T06:39:34;99887.50;;;18.73;69.64
50702;BME280;36670;50.094;8.496;2022-09-09T06:41:59;99884.16;;;18.71;69.82
50702;BME280;36670;50.094;8.496;2022-09-09T06:44:25;99889.06;;;18.66;70.12
50702;BME280;36670;50.094;8.496;2022-09-09T06:46:51;99889.50;;;18.59;70.55
50702;BME280;36670;50.094;8.496;2022-09-09T06:49:17;99894.00;;;18.46;70.58
50702;BME280;36670;50.094;8.496;2022-09-09T06:51:42;99887.97;;;18.30;71.43
50702;BME280;36670;50.094;8.496;2022-09-09T06:54:09;99884.72;;;18.37;71.38
50702;BME280;36670;50.094;8.496;2022-09-09T06:56:36;99880.03;;;18.46;71.38
50702;BME280;36670;50.094;8.496;2022-09-09T06:59:04;99888.78;;;18.31;71.96
50702;BME280;36670;50.094;8.496;2022-09-09T07:01:35;99883.63;;;18.24;72.15
50702;BME280;36670;50.094;8.496;2022-09-09T07:04:02;99892.09;;;18.19;72.50
50702;BME280;36670;50.094;8.496;2022-09-09T07:06:31;99880.03;;;18.46;71.75
50702;BME280;36670;50.094;8.496;2022-09-09T07:08:59;99880.47;;;18.62;72.01
50702;BME280;36670;50.094;8.496;2022-09-09T07:11:27;99888.47;;;18.55;71.95
50702;BME280;36670;50.094;8.496;2022-09-09T07:13:54;99884.06;;;18.76;71.79
50702;BME280;36670;50.094;8.496;2022-09-09T07:16:21;99890.34;;;18.82;71.74
50702;BME280;36670;50.094;8.496;2022-09-09T07:18:49;99894.34;;;18.90;71.19
50702;BME280;36670;50.094;8.496;2022-09-09T07:21:16;99898.81;;;18.91;70.89
50702;BME280;36670;50.094;8.496;2022-09-09T07:23:41;99896.44;;;18.84;71.31
50702;BME280;36670;50.094;8.496;2022-09-09T07:26:11;99886.88;;;18.99;71.14
50702;BME280;36670;50.094;8.496;2022-09-09T07:28:37;99887.69;;;19.00;70.21
50702;BME280;36670;50.094;8.496;2022-09-09T07:31:03;99883.75;;;19.01;69.80
50702;BME280;36670;50.094;8.496;2022-09-09T07:33:30;99890.78;;;18.98;70.14
50702;BME280;36670;50.094;8.496;2022-09-09T07:36:13;99889.00;;;19.02;70.27
50702;BME280;36670;50.094;8.496;2022-09-09T07:38:44;99884.19;;;18.94;70.19
50702;BME280;36670;50.094;8.496;2022-09-09T07:41:13;99892.28;;;19.27;70.37
50702;BME280;36670;50.094;8.496;2022-09-09T07:43:39;99898.91;;;19.31;68.33
50702;BME280;36670;50.094;8.496;2022-09-09T07:46:05;99897.47;;;19.11;69.61
50702;BME280;36670;50.094;8.496;2022-09-09T07:48:31;99897.19;;;19.21;69.49
50702;BME280;36670;50.094;8.496;2022-09-09T07:51:05;99901.59;;;19.14;69.04
50702;BME280;36670;50.094;8.496;2022-09-09T07:53:31;99904.13;;;19.24;69.64
50702;BME280;36670;50.094;8.496;2022-09-09T07:56:02;99908.72;;;19.20;69.32
50702;BME280;36670;50.094;8.496;2022-09-09T07:58:28;99916.13;;;19.24;69.42
50702;BME280;36670;50.094;8.496;2022-09-09T08:00:53;99918.16;;;19.33;68.47
50702;BME280;36670;50.094;8.496;2022-09-09T08:03:19;99907.94;;;19.28;69.09
50702;BME280;36670;50.094;8.496;2022-09-09T08:05:47;99913.47;;;19.51;68.31
50702;BME280;36670;50.094;8.496;2022-09-09T08:08:12;99911.44;;;19.74;68.61
50702;BME280;36670;50.094;8.496;2022-09-09T08:10:37;99906.59;;;19.97;68.22
50702;BME280;36670;50.094;8.496;2022-09-09T08:13:03;99916.41;;;20.43;67.95
50702;BME280;36670;50.094;8.496;2022-09-09T08:15:28;99919.06;;;20.57;65.79
50702;BME280;36670;50.094;8.496;2022-09-09T08:17:56;99903.53;;;20.51;64.83
50702;BME280;36670;50.094;8.496;2022-09-09T08:20:21;99907.00;;;20.39;65.42
50702;BME280;36670;50.094;8.496;2022-09-09T08:22:48;99911.94;;;20.42;65.79
50702;BME280;36670;50.094;8.496;2022-09-09T08:25:15;99912.78;;;20.60;65.38
50702;BME280;36670;50.094;8.496;2022-09-09T08:27:40;99905.84;;;20.67;64.53
50702;BME280;36670;50.094;8.496;2022-09-09T08:30:06;99904.53;;;20.55;64.04
50702;BME280;36670;50.094;8.496;2022-09-09T08:32:31;99909.47;;;20.32;64.66
50702;BME280;36670;50.094;8.496;2022-09-09T08:34:56;99910.28;;;20.24;65.29
50702;BME280;36670;50.094;8.496;2022-09-09T08:37:22;99912.03;;;20.02;65.45
50702;BME280;36670;50.094;8.496;2022-09-09T08:39:48;99918.91;;;19.87;65.04
50702;BME280;36670;50.094;8.496;2022-09-09T08:42:40;99915.09;;;19.83;66.19
50702;BME280;36670;50.094;8.496;2022-09-09T08:50:30;99896.91;;;20.12;65.65
50702;BME280;36670;50.094;8.496;2022-09-09T08:58:19;99905.00;;;20.40;63.24
50702;BME280;36670;50.094;8.496;2022-09-09T09:09:02;99898.41;;;20.36;63.34
50702;BME280;36670;50.094;8.496;2022-09-09T09:11:38;99895.97;;;20.52;63.46
50702;BME280;36670;50.094;8.496;2022-09-09T09:14:26;99894.28;;;20.59;62.78
50702;BME280;36670;50.094;8.496;2022-09-09T09:17:05;99900.09;;;20.72;63.04
50702;BME280;36670;50.094;8.496;2022-09-09T09:19:33;99903.53;;;20.86;61.78
50702;BME280;36670;50.094;8.496;2022-09-09T09:24:42;99890.78;;;21.71;60.52
50702;BME280;36670;50.094;8.496;2022-09-09T09:27:15;99887.47;;;21.69;60.74
50702;BME280;36670;50.094;8.496;2022-09-09T09:29:42;99895.28;;;21.93;60.04
50702;BME280;36670;50.094;8.496;2022-09-09T09:32:12;99890.94;;;22.05;58.15
50702;BME280;36670;50.094;8.496;2022-09-09T09:34:39;99891.81;;;21.96;59.08
50702;BME280;36670;50.094;8.496;2022-09-09T09:37:16;99897.16;;;21.80;59.18
50702;BME280;36670;50.094;8.496;2022-09-09T09:39:44;99891.56;;;21.33;58.99
50702;BME280;36670;50.094;8.496;2022-09-09T09:42:11;99882.84;;;21.26;60.04
50702;BME280;36670;50.094;8.496;2022-09-09T09:44:40;99875.03;;;21.79;59.88
50702;BME280;36670;50.094;8.496;2022-09-09T09:47:18;99870.22;;;22.30;58.38
50702;BME280;36670;50.094;8.496;2022-09-09T09:49:57;99878.66;;;22.73;56.96
50702;BME280;36670;50.094;8.496;2022-09-09T09:52:25;99879.50;;;22.73;57.23
50702;BME280;36670;50.094;8.496;2022-09-09T09:54:52;99862.16;;;22.50;56.89
50702;BME280;36670;50.094;8.496;2022-09-09T09:57:23;99851.59;;;22.47;57.64
50702;BME280;36670;50.094;8.496;2022-09-09T10:00:01;99861.56;;;22.44;57.65
50702;BME280;36670;50.094;8.496;2022-09-09T10:02:38;99888.06;;;22.13;58.72
50702;BME280;36670;50.094;8.496;2022-09-09T10:07:40;99888.34;;;22.21;57.80
50702;BME280;36670;50.094;8.496;2022-09-09T10:10:13;99888.69;;;22.19;57.98
50702;BME280;36670;50.094;8.496;2022-09-09T10:12:59;99882.00;;;22.03;57.53
50702;BME280;36670;50.094;8.496;2022-09-09T10:26:32;99868.78;;;21.26;61.09
50702;BME280;36670;50.094;8.496;2022-09-09T10:30:10;99866.44;;;21.37;62.38
50702;BME280;36670;50.094;8.496;2022-09-09T10:34:57;99879.19;;;21.34;62.36
50702;BME280;36670;50.094;8.496;2022-09-09T10:42:46;99880.50;;;21.28;62.25
50702;BME280;36670;50.094;8.496;2022-09-09T10:45:18;99873.16;;;21.62;62.19
50702;BME280;36670;50.094;8.496;2022-09-09T10:56:16;99854.97;;;23.07;57.75
50702;BME280;36670;50.094;8.496;2022-09-09T10:58:50;99855.06;;;23.32;55.94
50702;BME280;36670;50.094;8.496;2022-09-09T11:01:24;99862.72;;;23.44;52.32
50702;BME280;36670;50.094;8.496;2022-09-09T11:04:15;99852.38;;;23.23;50.61
50702;BME280;36670;50.094;8.496;2022-09-09T11:06:44;99860.69;;;22.86;50.41
50702;BME280;36670;50.094;8.496;2022-09-09T11:09:24;99857.41;;;22.84;50.98
50702;BME280;36670;50.094;8.496;2022-09-09T11:11:56;99853.41;;;23.31;48.85
50702;BME280;36670;50.094;8.496;2022-09-09T11:17:24;99842.44;;;23.88;48.52
50702;BME280;36670;50.094;8.496;2022-09-09T11:19:52;99854.16;;;24.02;48.15
50702;BME280;36670;50.094;8.496;2022-09-09T11:22:30;99844.34;;;24.24;47.30
50702;BME280;36670;50.094;8.496;2022-09-09T11:25:00;99837.13;;;23.98;46.04
50702;BME280;36670;50.094;8.496;2022-09-09T11:27:39;99839.25;;;24.01;46.91
50702;BME280;36670;50.094;8.496;2022-09-09T11:30:18;99852.19;;;24.43;47.11
50702;BME280;36670;50.094;8.496;2022-09-09T11:35:53;99841.59;;;24.81;44.99
50702;BME280;36670;50.094;8.496;2022-09-09T11:41:11;99852.84;;;24.65;45.55
50702;BME280;36670;50.094;8.496;2022-09-09T11:43:49;99839.06;;;24.63;45.38
50702;BME280;36670;50.094;8.496;2022-09-09T11:46:39;99806.88;;;24.24;44.87
50702;BME280;36670;50.094;8.496;2022-09-09T11:49:26;99823.31;;;25.07;42.67
50702;BME280;36670;50.094;8.496;2022-09-09T11:51:51;99844.47;;;25.13;44.17
50702;BME280;36670;50.094;8.496;2022-09-09T11:54:31;99835.97;;;24.97;43.52
50702;BME280;36670;50.094;8.496;2022-09-09T11:56:58;99841.41;;;24.74;44.46
50702;BME280;36670;50.094;8.496;2022-09-09T11:59:27;99843.75;;;24.59;44.43
50702;BME280;36670;50.094;8.496;2022-09-09T12:04:33;99847.88;;;24.33;45.51
50702;BME280;36670;50.094;8.496;2022-09-09T12:07:05;99845.03;;;23.93;46.08
50702;BME280;36670;50.094;8.496;2022-09-09T12:10:01;99856.50;;;23.63;46.09
50702;BME280;36670;50.094;8.496;2022-09-09T12:12:35;99841.81;;;23.57;45.90
50702;BME280;36670;50.094;8.496;2022-09-09T12:17:47;99837.84;;;23.58;47.29
50702;BME280;36670;50.094;8.496;2022-09-09T12:20:20;99847.09;;;23.59;47.04
50702;BME280;36670;50.094;8.496;2022-09-09T12:22:51;99839.94;;;23.37;47.05
50702;BME280;36670;50.094;8.496;2022-09-09T12:25:30;99847.09;;;23.22;47.55
50702;BME280;36670;50.094;8.496;2022-09-09T12:28:39;99851.63;;;23.14;47.61
50702;BME280;36670;50.094;8.496;2022-09-09T12:31:17;99847.31;;;22.83;48.46
50702;BME280;36670;50.094;8.496;2022-09-09T12:33:45;99875.16;;;22.42;52.65
50702;BME280;36670;50.094;8.496;2022-09-09T12:36:20;99881.22;;;21.93;55.61
50702;BME280;36670;50.094;8.496;2022-09-09T12:38:47;99880.56;;;21.10;56.62
50702;BME280;36670;50.094;8.496;2022-09-09T12:41:24;99871.69;;;20.64;59.72
50702;BME280;36670;50.094;8.496;2022-09-09T12:43:50;99858.50;;;20.65;58.48
50702;BME280;36670;50.094;8.496;2022-09-09T12:48:47;99840.69;;;20.52;60.56
50702;BME280;36670;50.094;8.496;2022-09-09T12:51:32;99855.06;;;20.68;59.99
50702;BME280;36670;50.094;8.496;2022-09-09T12:53:58;99858.00;;;20.63;61.08
50702;BME280;36670;50.094;8.496;2022-09-09T12:56:27;99859.97;;;20.54;61.40
50702;BME280;36670;50.094;8.496;2022-09-09T12:58:56;99855.56;;;20.70;61.76
50702;BME280;36670;50.094;8.496;2022-09-09T13:01:29;99863.78;;;20.84;62.27
50702;BME280;36670;50.094;8.496;2022-09-09T13:03:56;99859.63;;;20.99;63.19
50702;BME280;36670;50.094;8.496;2022-09-09T13:06:23;99860.53;;;21.29;63.32
50702;BME280;36670;50.094;8.496;2022-09-09T13:08:53;99855.69;;;21.47;63.15
50702;BME280;36670;50.094;8.496;2022-09-09T13:11:26;99867.00;;;21.69;63.29
50702;BME280;36670;50.094;8.496;2022-09-09T13:13:55;99859.22;;;21.65;62.60
50702;BME280;36670;50.094;8.496;2022-09-09T13:16:29;99861.56;;;21.63;62.67
50702;BME280;36670;50.094;8.496;2022-09-09T13:19:06;99856.28;;;21.62;63.05
50702;BME280;36670;50.094;8.496;2022-09-09T13:21:37;99853.44;;;21.71;62.59
50702;BME280;36670;50.094;8.496;2022-09-09T13:24:05;99849.75;;;21.79;62.31
50702;BME280;36670;50.094;8.496;2022-09-09T13:26:33;99851.59;;;21.75;61.96
50702;BME280;36670;50.094;8.496;2022-09-09T13:29:16;99844.13;;;21.40;59.98
50702;BME280;36670;50.094;8.496;2022-09-09T13:31:43;99837.34;;;21.41;61.11
50702;BME280;36670;50.094;8.496;2022-09-09T13:34:30;99840.47;;;21.57;60.33
50702;BME280;36670;50.094;8.496;2022-09-09T13:37:02;99832.94;;;21.70;58.01
50702;BME280;36670;50.094;8.496;2022-09-09T13:39:29;99835.75;;;21.70;59.16
50702;BME280;36670;50.094;8.496;2022-09-09T13:41:54;99835.00;;;21.82;58.84
50702;BME280;36670;50.094;8.496;2022-09-09T13:44:29;99825.16;;;21.97;58.61
50702;BME280;36670;50.094;8.496;2022-09-09T13:47:01;99837.78;;;21.91;58.46
50702;BME280;36670;50.094;8.496;2022-09-09T13:49:28;99834.56;;;22.01;57.90
50702;BME280;36670;50.094;8.496;2022-09-09T13:52:05;99839.06;;;21.93;57.33
50702;BME280;36670;50.094;8.496;2022-09-09T13:54:33;99850.09;;;21.77;56.78
50702;BME280;36670;50.094;8.496;2022-09-09T13:56:59;99842.25;;;21.62;56.42
50702;BME280;36670;50.094;8.496;2022-09-09T13:59:24;99846.38;;;21.56;56.90
50702;BME280;36670;50.094;8.496;2022-09-09T14:01:51;99846.91;;;21.49;57.06
50702;BME280;36670;50.094;8.496;2022-09-09T14:04:17;99851.56;;;21.45;56.66
50702;BME280;36670;50.094;8.496;2022-09-09T14:06:43;99855.56;;;21.35;56.32
50702;BME280;36670;50.094;8.496;2022-09-09T14:09:13;99860.66;;;21.33;56.11
50702;BME280;36670;50.094;8.496;2022-09-09T14:11:38;99860.75;;;21.07;56.39
50702;BME280;36670;50.094;8.496;2022-09-09T14:14:05;99869.16;;;21.07;55.93
50702;BME280;36670;50.094;8.496;2022-09-09T14:16:30;99870.50;;;21.09;56.11
50702;BME280;36670;50.094;8.496;2022-09-09T14:18:56;99866.53;;;21.10;56.36
50702;BME280;36670;50.094;8.496;2022-09-09T14:21:22;99865.81;;;21.22;56.73
50702;BME280;36670;50.094;8.496;2022-09-09T14:23:48;99883.81;;;21.30;56.88
50702;BME280;36670;50.094;8.496;2022-09-09T14:26:14;99871.16;;;21.06;57.00
50702;BME280;36670;50.094;8.496;2022-09-09T14:28:39;99882.03;;;21.17;57.05
50702;BME280;36670;50.094;8.496;2022-09-09T14:31:05;99875.34;;;20.83;56.92
50702;BME280;36670;50.094;8.496;2022-09-09T14:33:31;99870.03;;;20.90;57.14
50702;BME280;36670;50.094;8.496;2022-09-09T14:36:01;99871.22;;;20.80;59.05
50702;BME280;36670;50.094;8.496;2022-09-09T14:38:31;99868.75;;;20.78;59.25
50702;BME280;36670;50.094;8.496;2022-09-09T14:40:59;99861.28;;;20.65;59.51
50702;BME280;36670;50.094;8.496;2022-09-09T14:43:24;99864.44;;;20.72;60.62
50702;BME280;36670;50.094;8.496;2022-09-09T14:45:52;99859.97;;;20.89;60.15
50702;BME280;36670;50.094;8.496;2022-09-09T14:48:17;99856.81;;;20.99;59.94
50702;BME280;36670;50.094;8.496;2022-09-09T14:50:43;99851.78;;;21.22;60.08
50702;BME280;36670;50.094;8.496;2022-09-09T14:53:09;99839.97;;;21.55;59.89